createdAt,value
2017-12-26T00:00:02.802Z,82.08
2017-12-26T00:00:43.372Z,81.88
2017-12-26T00:01:23.955Z,82.08
2017-12-26T00:02:04.545Z,82.17
2017-12-26T00:02:45.160Z,82.17
2017-12-26T00:03:25.738Z,81.79
2017-12-26T00:04:06.361Z,81.98
2017-12-26T00:04:46.968Z,81.98
2017-12-26T00:05:27.557Z,82.36
2017-12-26T00:06:08.176Z,82.27
2017-12-26T00:06:48.739Z,81.93
2017-12-26T00:07:29.320Z,82.08
2017-12-26T00:08:09.932Z,81.93
2017-12-26T00:08:50.513Z,82.17
2017-12-26T00:09:31.123Z,82.17
2017-12-26T00:10:11.705Z,81.7
2017-12-26T00:10:52.272Z,81.51
2017-12-26T00:11:32.871Z,81.84
2017-12-26T00:12:13.442Z,81.79
2017-12-26T00:12:54.044Z,81.41
2017-12-26T00:13:34.606Z,81.65
2017-12-26T00:14:15.193Z,81.51
2017-12-26T00:14:55.763Z,81.41
2017-12-26T00:15:36.456Z,81.6
2017-12-26T00:16:17.026Z,82.27
2017-12-26T00:16:57.636Z,82.27
2017-12-26T00:17:38.254Z,82.17
2017-12-26T00:18:18.853Z,82.03
2017-12-26T00:18:59.448Z,82.27
2017-12-26T00:19:40.063Z,81.93
2017-12-26T00:20:20.642Z,81.7
2017-12-26T00:21:01.213Z,81.7
2017-12-26T00:21:41.822Z,81.55
2017-12-26T00:22:22.384Z,81.51
2017-12-26T00:23:02.994Z,81.6
2017-12-26T00:23:43.555Z,81.7
2017-12-26T00:24:24.123Z,81.79
2017-12-26T00:25:04.690Z,81.79
2017-12-26T00:25:45.272Z,81.79
2017-12-26T00:26:25.852Z,81.79
2017-12-26T00:27:06.435Z,81.79
2017-12-26T00:27:47.015Z,81.7
2017-12-26T00:28:27.582Z,81.51
2017-12-26T00:29:08.159Z,81.51
2017-12-26T00:29:48.733Z,81.41
2017-12-26T00:30:29.296Z,81.41
2017-12-26T00:31:09.904Z,81.79
2017-12-26T00:31:50.503Z,81.79
2017-12-26T00:32:31.062Z,81.79
2017-12-26T00:33:11.633Z,81.7
2017-12-26T00:33:52.199Z,81.51
2017-12-26T00:34:32.784Z,82.17
2017-12-26T00:35:13.413Z,82.08
2017-12-26T00:35:54.002Z,81.98
2017-12-26T00:36:34.611Z,82.08
2017-12-26T00:37:15.231Z,82.17
2017-12-26T00:37:55.820Z,81.88
2017-12-26T00:38:36.410Z,82.08
2017-12-26T00:39:17.022Z,81.88
2017-12-26T00:39:57.607Z,82.17
2017-12-26T00:40:38.221Z,82.46
2017-12-26T00:41:18.776Z,82.46
2017-12-26T00:41:59.374Z,82.27
2017-12-26T00:42:39.984Z,82.27
2017-12-26T00:43:20.567Z,82.36
2017-12-26T00:44:01.149Z,82.36
2017-12-26T00:44:41.741Z,82.17
2017-12-26T00:45:22.308Z,82.08
2017-12-26T00:46:02.902Z,82.08
2017-12-26T00:46:43.482Z,81.88
2017-12-26T00:47:24.058Z,82.08
2017-12-26T00:48:04.653Z,82.55
2017-12-26T00:48:45.261Z,82.27
2017-12-26T00:49:25.875Z,81.98
2017-12-26T00:50:06.459Z,82.36
2017-12-26T00:50:47.027Z,82.55
2017-12-26T00:51:27.624Z,82.36
2017-12-26T00:52:08.243Z,82.55
2017-12-26T00:52:48.874Z,82.93
2017-12-26T00:53:29.462Z,82.84
2017-12-26T00:54:10.058Z,82.55
2017-12-26T00:54:50.629Z,82.55
2017-12-26T00:55:31.232Z,82.84
2017-12-26T00:56:11.827Z,82.74
2017-12-26T00:56:52.401Z,82.84
2017-12-26T00:57:32.997Z,82.27
2017-12-26T00:58:13.585Z,81.88
2017-12-26T00:58:54.202Z,82.17
2017-12-26T00:59:34.787Z,82.84
2017-12-26T01:00:15.368Z,82.36
2017-12-26T01:00:55.986Z,82.27
2017-12-26T01:01:36.572Z,82.08
2017-12-26T01:02:17.175Z,81.88
2017-12-26T01:02:57.733Z,82.74
2017-12-26T01:03:38.305Z,82.27
2017-12-26T01:04:18.866Z,82.36
2017-12-26T01:04:59.462Z,82.55
2017-12-26T01:05:40.026Z,82.27
2017-12-26T01:06:20.607Z,82.36
2017-12-26T01:07:01.198Z,82.46
2017-12-26T01:07:41.784Z,82.46
2017-12-26T01:08:22.349Z,81.98
2017-12-26T01:09:02.981Z,83.03
2017-12-26T01:09:43.552Z,82.46
2017-12-26T01:10:24.146Z,82.27
2017-12-26T01:11:04.737Z,82.46
2017-12-26T01:11:45.324Z,82.36
2017-12-26T01:12:25.885Z,81.98
2017-12-26T01:13:06.493Z,82.36
2017-12-26T01:13:47.047Z,81.88
2017-12-26T01:14:27.633Z,82.27
2017-12-26T01:15:08.222Z,82.36
2017-12-26T01:15:48.805Z,82.27
2017-12-26T01:16:29.357Z,82.36
2017-12-26T01:17:09.948Z,82.36
2017-12-26T01:17:50.537Z,82.74
2017-12-26T01:18:31.143Z,82.46
2017-12-26T01:19:11.733Z,82.36
2017-12-26T01:19:52.307Z,81.88
2017-12-26T01:20:32.884Z,82.27
2017-12-26T01:21:13.468Z,81.88
2017-12-26T01:21:54.036Z,82.17
2017-12-26T01:22:34.599Z,82.84
2017-12-26T01:23:15.189Z,82.36
2017-12-26T01:23:55.760Z,82.27
2017-12-26T01:24:36.329Z,82.36
2017-12-26T01:25:16.932Z,82.55
2017-12-26T01:25:57.515Z,82.74
2017-12-26T01:26:38.079Z,82.17
2017-12-26T01:27:18.640Z,82.17
2017-12-26T01:27:59.238Z,82.65
2017-12-26T01:28:39.810Z,82.08
2017-12-26T01:29:20.369Z,82.46
2017-12-26T01:30:00.955Z,82.84
2017-12-26T01:30:41.526Z,82.84
2017-12-26T01:31:22.127Z,81.88
2017-12-26T01:32:02.682Z,82.74
2017-12-26T01:32:43.283Z,82.84
2017-12-26T01:33:23.848Z,82.27
2017-12-26T01:34:04.446Z,82.84
2017-12-26T01:34:45.044Z,82.55
2017-12-26T01:35:25.627Z,82.84
2017-12-26T01:36:06.223Z,81.88
2017-12-26T01:36:46.826Z,82.46
2017-12-26T01:37:27.365Z,82.08
2017-12-26T01:38:07.932Z,82.74
2017-12-26T01:38:48.508Z,82.98
2017-12-26T01:39:29.091Z,81.98
2017-12-26T01:40:09.670Z,82.84
2017-12-26T01:40:50.261Z,82.46
2017-12-26T01:41:30.862Z,82.46
2017-12-26T01:42:11.454Z,82.74
2017-12-26T01:42:52.021Z,82.17
2017-12-26T01:43:32.590Z,82.55
2017-12-26T01:44:13.139Z,82.36
2017-12-26T01:44:53.703Z,82.51
2017-12-26T01:45:34.343Z,82.27
2017-12-26T01:46:14.924Z,82.74
2017-12-26T01:46:55.553Z,82.17
2017-12-26T01:47:36.140Z,82.17
2017-12-26T01:48:16.702Z,81.85
2017-12-26T01:49:04.002Z,82.23
2017-12-26T01:49:44.590Z,82.04
2017-12-26T01:50:25.171Z,82.79
2017-12-26T01:51:05.751Z,81.85
2017-12-26T01:51:46.302Z,82.51
2017-12-26T01:52:26.902Z,82.7
2017-12-26T01:53:07.514Z,82.7
2017-12-26T01:53:48.118Z,82.7
2017-12-26T01:54:28.719Z,82.79
2017-12-26T01:55:09.284Z,82.32
2017-12-26T01:55:49.867Z,82.7
2017-12-26T01:56:30.464Z,82.7
2017-12-26T01:57:11.034Z,82.7
2017-12-26T01:57:51.587Z,82.79
2017-12-26T01:58:32.173Z,82.7
2017-12-26T01:59:12.737Z,81.85
2017-12-26T01:59:53.308Z,82.32
2017-12-26T02:00:33.877Z,82.79
2017-12-26T02:01:14.486Z,82.32
2017-12-26T02:01:55.078Z,81.94
2017-12-26T02:02:35.631Z,82.42
2017-12-26T02:03:16.274Z,82.32
2017-12-26T02:03:56.887Z,82.51
2017-12-26T02:04:37.483Z,82.32
2017-12-26T02:05:18.051Z,82.89
2017-12-26T02:05:58.663Z,82.51
2017-12-26T02:06:39.254Z,82.32
2017-12-26T02:07:19.834Z,82.51
2017-12-26T02:08:00.448Z,82.51
2017-12-26T02:08:41.019Z,82.7
2017-12-26T02:09:21.622Z,82.04
2017-12-26T02:10:02.195Z,82.32
2017-12-26T02:10:42.749Z,82.7
2017-12-26T02:11:23.309Z,82.42
2017-12-26T02:12:03.884Z,82.6
2017-12-26T02:12:44.462Z,82.51
2017-12-26T02:13:25.022Z,82.51
2017-12-26T02:14:05.615Z,82.7
2017-12-26T02:14:46.191Z,82.42
2017-12-26T02:15:26.759Z,82.51
2017-12-26T02:16:07.331Z,82.6
2017-12-26T02:16:47.946Z,82.7
2017-12-26T02:17:28.497Z,82.79
2017-12-26T02:18:09.046Z,82.23
2017-12-26T02:18:49.647Z,82.42
2017-12-26T02:19:30.220Z,82.6
2017-12-26T02:20:10.844Z,82.13
2017-12-26T02:20:51.459Z,82.79
2017-12-26T02:21:32.075Z,82.6
2017-12-26T02:22:12.666Z,82.79
2017-12-26T02:22:53.266Z,82.7
2017-12-26T02:23:33.849Z,82.42
2017-12-26T02:24:14.431Z,82.51
2017-12-26T02:24:55.024Z,82.32
2017-12-26T02:25:35.589Z,82.79
2017-12-26T02:26:16.152Z,82.6
2017-12-26T02:26:56.730Z,82.79
2017-12-26T02:27:37.298Z,82.23
2017-12-26T02:28:17.873Z,82.32
2017-12-26T02:28:58.486Z,82.98
2017-12-26T02:29:39.048Z,83.36
2017-12-26T02:30:19.619Z,82.98
2017-12-26T02:31:00.191Z,83.17
2017-12-26T02:31:40.799Z,83.36
2017-12-26T02:32:21.367Z,83.08
2017-12-26T02:33:01.984Z,83.17
2017-12-26T02:33:42.584Z,83.46
2017-12-26T02:34:23.180Z,83.27
2017-12-26T02:35:03.800Z,82.89
2017-12-26T02:35:44.362Z,82.79
2017-12-26T02:36:24.936Z,83.55
2017-12-26T02:37:05.490Z,83.17
2017-12-26T02:37:46.050Z,83.55
2017-12-26T02:38:26.610Z,82.89
2017-12-26T02:39:07.182Z,83.27
2017-12-26T02:39:47.756Z,82.7
2017-12-26T02:40:28.357Z,82.79
2017-12-26T02:41:08.939Z,82.79
2017-12-26T02:41:49.532Z,82.7
2017-12-26T02:42:30.117Z,82.32
2017-12-26T02:43:10.673Z,82.23
2017-12-26T02:43:51.309Z,82.79
2017-12-26T02:44:31.861Z,82.79
2017-12-26T02:45:12.423Z,82.23
2017-12-26T02:45:52.993Z,82.98
2017-12-26T02:46:33.576Z,82.89
2017-12-26T02:47:14.198Z,82.7
2017-12-26T02:47:54.781Z,82.51
2017-12-26T02:48:35.367Z,82.32
2017-12-26T02:49:15.944Z,82.32
2017-12-26T02:49:56.544Z,82.23
2017-12-26T02:50:37.095Z,82.7
2017-12-26T02:51:17.656Z,82.7
2017-12-26T02:51:58.236Z,82.51
2017-12-26T02:52:38.798Z,81.85
2017-12-26T02:53:19.350Z,82.04
2017-12-26T02:53:59.934Z,82.79
2017-12-26T02:54:40.511Z,82.51
2017-12-26T02:55:21.168Z,81.94
2017-12-26T02:56:01.733Z,82.51
2017-12-26T02:56:42.316Z,82.6
2017-12-26T02:57:22.894Z,82.42
2017-12-26T02:58:03.503Z,82.89
2017-12-26T02:58:44.064Z,82.6
2017-12-26T02:59:24.654Z,82.6
2017-12-26T03:00:05.243Z,82.79
2017-12-26T03:00:45.827Z,82.79
2017-12-26T03:01:26.394Z,82.79
2017-12-26T03:02:06.957Z,82.13
2017-12-26T03:02:47.544Z,82.89
2017-12-26T03:03:28.128Z,81.94
2017-12-26T03:04:08.716Z,82.79
2017-12-26T03:04:49.331Z,82.6
2017-12-26T03:05:29.944Z,82.42
2017-12-26T03:06:10.499Z,82.51
2017-12-26T03:06:51.094Z,82.7
2017-12-26T03:07:31.682Z,82.51
2017-12-26T03:08:12.246Z,82.51
2017-12-26T03:08:52.834Z,82.79
2017-12-26T03:09:33.413Z,82.51
2017-12-26T03:10:13.994Z,82.51
2017-12-26T03:10:54.580Z,82.32
2017-12-26T03:11:35.207Z,82.04
2017-12-26T03:12:15.788Z,82.51
2017-12-26T03:12:56.367Z,82.6
2017-12-26T03:13:36.951Z,82.32
2017-12-26T03:14:17.548Z,81.94
2017-12-26T03:14:58.164Z,82.79
2017-12-26T03:15:38.756Z,82.7
2017-12-26T03:16:19.364Z,82.7
2017-12-26T03:16:59.939Z,82.6
2017-12-26T03:17:40.518Z,82.51
2017-12-26T03:18:21.123Z,82.7
2017-12-26T03:19:01.719Z,82.7
2017-12-26T03:19:42.314Z,82.79
2017-12-26T03:20:22.913Z,82.56
2017-12-26T03:21:03.474Z,82.51
2017-12-26T03:21:44.084Z,82.56
2017-12-26T03:22:24.639Z,82.47
2017-12-26T03:23:05.214Z,82.75
2017-12-26T03:23:45.839Z,82.66
2017-12-26T03:24:26.431Z,82.66
2017-12-26T03:25:06.999Z,82.56
2017-12-26T03:25:47.609Z,82.66
2017-12-26T03:26:28.175Z,82.89
2017-12-26T03:27:08.774Z,82.66
2017-12-26T03:27:49.348Z,82.28
2017-12-26T03:28:29.922Z,82.85
2017-12-26T03:29:10.511Z,82.28
2017-12-26T03:29:51.137Z,82.18
2017-12-26T03:30:31.734Z,82.28
2017-12-26T03:31:12.297Z,82.28
2017-12-26T03:31:52.862Z,82.37
2017-12-26T03:32:33.447Z,82.94
2017-12-26T03:33:14.037Z,82.79
2017-12-26T03:33:54.611Z,82.79
2017-12-26T03:34:35.198Z,82.94
2017-12-26T03:35:15.786Z,82.51
2017-12-26T03:35:56.360Z,82.6
2017-12-26T03:36:36.933Z,82.42
2017-12-26T03:37:17.548Z,82.66
2017-12-26T03:37:58.115Z,82.28
2017-12-26T03:38:38.685Z,82.56
2017-12-26T03:39:19.258Z,82.79
2017-12-26T03:39:59.844Z,82.7
2017-12-26T03:40:40.423Z,82.04
2017-12-26T03:41:21.022Z,82.28
2017-12-26T03:42:01.630Z,82.28
2017-12-26T03:42:42.228Z,82.37
2017-12-26T03:43:22.806Z,82.28
2017-12-26T03:44:03.384Z,82.47
2017-12-26T03:44:43.960Z,82.79
2017-12-26T03:45:24.548Z,82.98
2017-12-26T03:46:05.122Z,82.75
2017-12-26T03:46:45.721Z,82.66
2017-12-26T03:47:26.333Z,82.85
2017-12-26T03:48:06.925Z,82.28
2017-12-26T03:48:47.485Z,82.6
2017-12-26T03:49:28.098Z,82.37
2017-12-26T03:50:08.673Z,82.98
2017-12-26T03:50:49.244Z,82.42
2017-12-26T03:51:29.845Z,82.09
2017-12-26T03:52:10.401Z,82.32
2017-12-26T03:52:50.958Z,82.42
2017-12-26T03:53:31.563Z,81.94
2017-12-26T03:54:12.120Z,82.85
2017-12-26T03:54:52.694Z,82.18
2017-12-26T03:55:33.309Z,82.13
2017-12-26T03:56:13.921Z,82.75
2017-12-26T03:56:54.523Z,81.9
2017-12-26T03:57:35.140Z,82.47
2017-12-26T03:58:15.699Z,82.7
2017-12-26T03:58:56.295Z,82.66
2017-12-26T03:59:36.863Z,82.28
2017-12-26T04:00:17.452Z,82.79
2017-12-26T04:00:58.028Z,82.79
2017-12-26T04:01:38.600Z,82.79
2017-12-26T04:02:19.174Z,82.89
2017-12-26T04:02:59.755Z,82.7
2017-12-26T04:03:46.254Z,82.51
2017-12-26T04:04:44.676Z,82.51
2017-12-26T04:06:32.176Z,82.04
2017-12-26T04:07:12.739Z,81.75
2017-12-26T04:07:53.308Z,81.85
2017-12-26T04:08:33.887Z,81.94
2017-12-26T04:09:14.450Z,82.04
2017-12-26T04:09:55.067Z,82.13
2017-12-26T04:10:35.616Z,82.32
2017-12-26T04:11:16.171Z,82.13
2017-12-26T04:11:56.732Z,82.13
2017-12-26T04:12:37.302Z,82.42
2017-12-26T04:13:17.900Z,82.42
2017-12-26T04:13:58.479Z,82.42
2017-12-26T04:14:39.067Z,82.04
2017-12-26T04:15:19.631Z,82.79
2017-12-26T04:16:00.208Z,82.13
2017-12-26T04:16:40.780Z,82.23
2017-12-26T04:17:21.385Z,81.85
2017-12-26T04:18:01.960Z,82.23
2017-12-26T04:18:42.535Z,82.32
2017-12-26T04:19:23.091Z,81.85
2017-12-26T04:20:03.659Z,82.42
2017-12-26T04:20:44.262Z,82.42
2017-12-26T04:21:24.837Z,82.32
2017-12-26T04:22:05.414Z,82.42
2017-12-26T04:22:46.009Z,81.85
2017-12-26T04:23:26.593Z,82.04
2017-12-26T04:24:07.155Z,82.04
2017-12-26T04:24:47.758Z,82.04
2017-12-26T04:25:28.334Z,82.23
2017-12-26T04:26:08.963Z,82.23
2017-12-26T04:26:49.549Z,82.23
2017-12-26T04:27:30.114Z,81.94
2017-12-26T04:28:10.687Z,82.04
2017-12-26T04:28:51.259Z,82.13
2017-12-26T04:29:31.839Z,82.04
2017-12-26T04:30:12.439Z,81.94
2017-12-26T04:30:53.024Z,81.66
2017-12-26T04:31:33.608Z,82.04
2017-12-26T04:32:14.209Z,82.32
2017-12-26T04:32:54.781Z,82.04
2017-12-26T04:33:35.388Z,82.04
2017-12-26T04:34:16.045Z,81.85
2017-12-26T04:34:56.645Z,81.94
2017-12-26T04:35:37.249Z,81.75
2017-12-26T04:36:17.837Z,81.85
2017-12-26T04:36:58.419Z,81.85
2017-12-26T04:37:39.006Z,82.04
2017-12-26T04:38:19.624Z,81.75
2017-12-26T04:39:00.176Z,82.04
2017-12-26T04:39:40.749Z,82.32
2017-12-26T04:40:21.306Z,81.94
2017-12-26T04:41:01.906Z,82.23
2017-12-26T04:41:42.479Z,82.32
2017-12-26T04:42:23.055Z,82.32
2017-12-26T04:43:03.611Z,82.23
2017-12-26T04:43:44.197Z,81.56
2017-12-26T04:44:24.758Z,81.47
2017-12-26T04:45:05.326Z,81.37
2017-12-26T04:45:45.892Z,81.56
2017-12-26T04:46:26.455Z,81.47
2017-12-26T04:47:07.004Z,81.37
2017-12-26T04:47:47.559Z,81.85
2017-12-26T04:48:28.161Z,81.75
2017-12-26T04:49:08.753Z,81.47
2017-12-26T04:49:49.356Z,81.18
2017-12-26T04:50:29.962Z,81.37
2017-12-26T04:51:10.573Z,81.47
2017-12-26T04:51:51.157Z,81.47
2017-12-26T04:52:31.717Z,81.75
2017-12-26T04:53:12.294Z,81.37
2017-12-26T04:53:52.877Z,81.47
2017-12-26T04:54:33.466Z,81.66
2017-12-26T04:55:14.042Z,81.56
2017-12-26T04:55:54.607Z,81.75
2017-12-26T04:56:35.176Z,81.66
2017-12-26T04:57:15.759Z,81.43
2017-12-26T04:57:56.328Z,81.37
2017-12-26T04:58:36.909Z,81.66
2017-12-26T04:59:17.488Z,81.62
2017-12-26T04:59:58.050Z,81.85
2017-12-26T05:00:38.624Z,81.85
2017-12-26T05:01:19.211Z,81.94
2017-12-26T05:01:59.787Z,81.56
2017-12-26T05:02:40.356Z,81.37
2017-12-26T05:03:20.928Z,81.66
2017-12-26T05:04:01.492Z,81.47
2017-12-26T05:04:42.071Z,81.66
2017-12-26T05:05:22.632Z,81.62
2017-12-26T05:06:03.218Z,81.27
2017-12-26T05:06:43.809Z,81.14
2017-12-26T05:07:24.384Z,81.75
2017-12-26T05:08:04.951Z,81.37
2017-12-26T05:08:45.532Z,81.43
2017-12-26T05:09:26.149Z,81.62
2017-12-26T05:10:06.753Z,81.52
2017-12-26T05:10:47.353Z,82.18
2017-12-26T05:11:27.923Z,82.09
2017-12-26T05:12:08.512Z,81.99
2017-12-26T05:12:49.093Z,81.71
2017-12-26T05:13:29.708Z,81.94
2017-12-26T05:14:10.315Z,81.99
2017-12-26T05:14:50.876Z,82.23
2017-12-26T05:15:31.493Z,81.62
2017-12-26T05:16:12.067Z,81.71
2017-12-26T05:16:52.653Z,82.09
2017-12-26T05:17:33.229Z,82.28
2017-12-26T05:18:13.813Z,81.99
2017-12-26T05:18:54.370Z,81.9
2017-12-26T05:19:34.990Z,81.99
2017-12-26T05:20:15.548Z,82.09
2017-12-26T05:20:56.119Z,82.09
2017-12-26T05:21:36.714Z,81.99
2017-12-26T05:22:17.266Z,82.47
2017-12-26T05:22:57.842Z,82.37
2017-12-26T05:23:38.471Z,81.99
2017-12-26T05:24:19.044Z,82.23
2017-12-26T05:24:59.620Z,82.13
2017-12-26T05:25:40.195Z,81.94
2017-12-26T05:26:20.765Z,82.04
2017-12-26T05:27:01.341Z,82.09
2017-12-26T05:27:41.950Z,82.23
2017-12-26T05:28:22.537Z,82.09
2017-12-26T05:29:03.093Z,82.09
2017-12-26T05:29:43.674Z,81.9
2017-12-26T05:30:24.231Z,82.18
2017-12-26T05:31:04.804Z,81.52
2017-12-26T05:31:45.399Z,82.09
2017-12-26T05:32:25.971Z,81.47
2017-12-26T05:33:06.560Z,81.37
2017-12-26T05:33:47.133Z,81.52
2017-12-26T05:34:27.710Z,81.75
2017-12-26T05:35:08.299Z,81.24
2017-12-26T05:35:48.875Z,81.62
2017-12-26T05:36:29.459Z,82.09
2017-12-26T05:37:10.079Z,82.18
2017-12-26T05:37:50.707Z,82.09
2017-12-26T05:38:31.281Z,81.9
2017-12-26T05:39:11.889Z,82.18
2017-12-26T05:39:52.457Z,81.99
2017-12-26T05:40:33.018Z,82.09
2017-12-26T05:41:13.587Z,81.99
2017-12-26T05:41:54.206Z,81.81
2017-12-26T05:42:34.797Z,81.99
2017-12-26T05:43:15.379Z,81.81
2017-12-26T05:43:55.952Z,82.28
2017-12-26T05:44:36.531Z,82.04
2017-12-26T05:45:17.163Z,81.94
2017-12-26T05:45:57.761Z,81.85
2017-12-26T05:46:38.325Z,82.23
2017-12-26T05:47:18.898Z,82.09
2017-12-26T05:47:59.464Z,81.99
2017-12-26T05:48:40.086Z,82.18
2017-12-26T05:49:20.664Z,82.23
2017-12-26T05:50:01.270Z,82.13
2017-12-26T05:50:41.841Z,82.23
2017-12-26T05:51:22.403Z,82.18
2017-12-26T05:52:02.977Z,81.85
2017-12-26T05:52:43.551Z,82.13
2017-12-26T05:53:24.109Z,82.13
2017-12-26T05:54:04.681Z,81.66
2017-12-26T05:54:45.246Z,81.66
2017-12-26T05:55:25.819Z,81.56
2017-12-26T05:56:06.410Z,82.13
2017-12-26T05:56:47.001Z,81.94
2017-12-26T05:57:27.599Z,82.32
2017-12-26T05:58:08.179Z,82.13
2017-12-26T05:58:48.787Z,82.13
2017-12-26T05:59:29.372Z,82.13
2017-12-26T06:00:09.973Z,81.56
2017-12-26T06:00:50.602Z,81.75
2017-12-26T06:01:31.186Z,81.85
2017-12-26T06:02:11.738Z,81.37
2017-12-26T06:02:52.295Z,81.75
2017-12-26T06:03:32.941Z,82.32
2017-12-26T06:04:13.505Z,82.23
2017-12-26T06:04:54.071Z,82.18
2017-12-26T06:05:34.668Z,82.13
2017-12-26T06:06:15.231Z,82.13
2017-12-26T06:06:55.847Z,81.75
2017-12-26T06:07:36.453Z,81.9
2017-12-26T06:08:17.040Z,81.85
2017-12-26T06:08:57.605Z,82.18
2017-12-26T06:09:38.185Z,82.32
2017-12-26T06:10:18.773Z,82.23
2017-12-26T06:10:59.364Z,81.94
2017-12-26T06:11:39.977Z,82.13
2017-12-26T06:12:20.560Z,82.13
2017-12-26T06:13:01.126Z,82.13
2017-12-26T06:13:41.691Z,82.23
2017-12-26T06:14:22.270Z,82.23
2017-12-26T06:15:02.842Z,82.13
2017-12-26T06:15:43.459Z,82.13
2017-12-26T06:16:24.056Z,82.09
2017-12-26T06:17:04.603Z,82.18
2017-12-26T06:17:45.157Z,82.04
2017-12-26T06:18:25.748Z,82.18
2017-12-26T06:19:06.302Z,82.09
2017-12-26T06:19:46.890Z,82.09
2017-12-26T06:20:27.465Z,82.13
2017-12-26T06:21:08.029Z,82.32
2017-12-26T06:21:48.622Z,82.09
2017-12-26T06:22:29.197Z,82.28
2017-12-26T06:23:09.826Z,81.85
2017-12-26T06:23:50.385Z,81.81
2017-12-26T06:24:31.008Z,82.23
2017-12-26T06:25:11.583Z,81.9
2017-12-26T06:25:52.156Z,81.9
2017-12-26T06:26:32.742Z,82.04
2017-12-26T06:27:13.321Z,82.04
2017-12-26T06:27:53.889Z,82.32
2017-12-26T06:28:34.470Z,82.13
2017-12-26T06:29:15.099Z,82.04
2017-12-26T06:29:55.676Z,81.81
2017-12-26T06:30:36.295Z,82.09
2017-12-26T06:31:16.891Z,81.66
2017-12-26T06:31:57.462Z,82.13
2017-12-26T06:32:38.038Z,81.85
2017-12-26T06:33:18.599Z,81.43
2017-12-26T06:33:59.156Z,82.13
2017-12-26T06:34:39.720Z,82.42
2017-12-26T06:35:20.282Z,82.04
2017-12-26T06:36:00.865Z,82.04
2017-12-26T06:36:41.444Z,82.04
2017-12-26T06:37:22.021Z,82.04
2017-12-26T06:38:02.617Z,81.85
2017-12-26T06:38:43.214Z,81.75
2017-12-26T06:39:23.797Z,81.75
2017-12-26T06:40:04.362Z,82.04
2017-12-26T06:40:44.980Z,82.04
2017-12-26T06:41:25.591Z,81.85
2017-12-26T06:42:06.167Z,81.75
2017-12-26T06:42:46.758Z,82.04
2017-12-26T06:43:27.371Z,82.13
2017-12-26T06:44:07.969Z,82.13
2017-12-26T06:44:48.614Z,82.13
2017-12-26T06:45:29.195Z,82.13
2017-12-26T06:46:09.786Z,81.75
2017-12-26T06:46:50.341Z,82.32
2017-12-26T06:47:30.910Z,82.42
2017-12-26T06:48:11.484Z,82.32
2017-12-26T06:48:52.066Z,82.13
2017-12-26T06:49:32.638Z,82.13
2017-12-26T06:50:13.200Z,82.42
2017-12-26T06:50:53.761Z,82.42
2017-12-26T06:51:34.334Z,82.23
2017-12-26T06:52:14.911Z,81.94
2017-12-26T06:52:55.480Z,81.85
2017-12-26T06:53:36.037Z,82.23
2017-12-26T06:54:16.613Z,82.32
2017-12-26T06:54:57.169Z,82.32
2017-12-26T06:55:37.752Z,82.32
2017-12-26T06:56:18.374Z,82.32
2017-12-26T06:56:58.971Z,82.13
2017-12-26T06:57:39.574Z,82.42
2017-12-26T06:58:20.160Z,82.37
2017-12-26T06:59:00.741Z,82.23
2017-12-26T06:59:41.303Z,82.18
2017-12-26T07:00:21.870Z,82.18
2017-12-26T07:01:02.432Z,82.23
2017-12-26T07:01:43.006Z,82.13
2017-12-26T07:02:23.595Z,82.18
2017-12-26T07:03:04.185Z,82.37
2017-12-26T07:03:44.765Z,82.42
2017-12-26T07:04:25.388Z,82.51
2017-12-26T07:05:06.015Z,82.42
2017-12-26T07:05:46.631Z,81.99
2017-12-26T07:06:27.199Z,82.42
2017-12-26T07:07:07.763Z,82.09
2017-12-26T07:07:48.346Z,82.42
2017-12-26T07:08:28.945Z,82.42
2017-12-26T07:09:09.514Z,82.04
2017-12-26T07:09:50.101Z,82.66
2017-12-26T07:10:30.661Z,82.32
2017-12-26T07:11:11.263Z,82.85
2017-12-26T07:11:51.858Z,82.42
2017-12-26T07:12:32.418Z,82.18
2017-12-26T07:13:12.974Z,82.28
2017-12-26T07:13:53.553Z,82.47
2017-12-26T07:14:34.127Z,82.37
2017-12-26T07:15:14.729Z,82.66
2017-12-26T07:15:55.345Z,82.09
2017-12-26T07:16:35.918Z,82.09
2017-12-26T07:17:16.498Z,82.28
2017-12-26T07:17:57.151Z,81.9
2017-12-26T07:18:37.724Z,82.37
2017-12-26T07:19:18.314Z,82.37
2017-12-26T07:19:58.898Z,81.9
2017-12-26T07:20:39.488Z,82.28
2017-12-26T07:21:20.810Z,82.18
2017-12-26T07:22:01.415Z,82.09
2017-12-26T07:22:42.007Z,82.47
2017-12-26T07:23:22.569Z,81.9
2017-12-26T07:24:03.167Z,82.37
2017-12-26T07:24:43.782Z,81.81
2017-12-26T07:25:24.396Z,81.9
2017-12-26T07:26:05.009Z,82.28
2017-12-26T07:26:45.572Z,82.75
2017-12-26T07:27:26.152Z,82.47
2017-12-26T07:28:06.758Z,82.47
2017-12-26T07:28:47.351Z,82.28
2017-12-26T07:29:27.943Z,82.18
2017-12-26T07:30:08.546Z,82.66
2017-12-26T07:30:49.157Z,82.85
2017-12-26T07:31:29.754Z,82.85
2017-12-26T07:32:10.383Z,82.47
2017-12-26T07:32:50.968Z,82.75
2017-12-26T07:33:31.571Z,82.75
2017-12-26T07:34:12.143Z,82.28
2017-12-26T07:34:52.723Z,82.37
2017-12-26T07:35:33.340Z,82.56
2017-12-26T07:36:13.948Z,81.99
2017-12-26T07:36:54.522Z,82.75
2017-12-26T07:37:35.141Z,82.37
2017-12-26T07:38:15.703Z,82.37
2017-12-26T07:38:56.274Z,82.28
2017-12-26T07:39:36.869Z,82.79
2017-12-26T07:40:17.489Z,81.81
2017-12-26T07:40:58.072Z,81.99
2017-12-26T07:41:38.683Z,82.09
2017-12-26T07:42:19.260Z,82.75
2017-12-26T07:42:59.828Z,82.42
2017-12-26T07:43:40.392Z,82.13
2017-12-26T07:44:20.998Z,82.32
2017-12-26T07:45:01.587Z,82.56
2017-12-26T07:45:42.225Z,82.75
2017-12-26T07:46:22.799Z,82.79
2017-12-26T07:47:03.407Z,82.32
2017-12-26T07:47:44.002Z,82.37
2017-12-26T07:48:24.561Z,82.23
2017-12-26T07:49:05.159Z,82.13
2017-12-26T07:49:45.764Z,82.13
2017-12-26T07:50:26.340Z,82.13
2017-12-26T07:51:06.921Z,82.23
2017-12-26T07:51:47.493Z,82.42
2017-12-26T07:52:28.121Z,82.32
2017-12-26T07:53:08.723Z,82.32
2017-12-26T07:53:49.315Z,82.7
2017-12-26T07:54:29.915Z,82.42
2017-12-26T07:55:10.481Z,82.42
2017-12-26T07:55:51.079Z,82.32
2017-12-26T07:56:31.660Z,82.7
2017-12-26T07:57:12.279Z,82.79
2017-12-26T07:57:52.836Z,82.23
2017-12-26T07:58:33.408Z,82.42
2017-12-26T07:59:14.000Z,82.32
2017-12-26T07:59:54.605Z,82.04
2017-12-26T08:00:35.193Z,82.32
2017-12-26T08:01:15.836Z,81.94
2017-12-26T08:01:56.440Z,82.32
2017-12-26T08:02:37.005Z,82.42
2017-12-26T08:03:17.591Z,82.13
2017-12-26T08:03:58.155Z,82.51
2017-12-26T08:04:38.754Z,82.42
2017-12-26T08:05:19.394Z,82.04
2017-12-26T08:05:59.963Z,82.04
2017-12-26T08:06:40.547Z,82.42
2017-12-26T08:07:21.104Z,82.42
2017-12-26T08:08:01.679Z,82.32
2017-12-26T08:08:42.274Z,82.23
2017-12-26T08:09:22.831Z,82.32
2017-12-26T08:10:03.414Z,82.6
2017-12-26T08:10:44.018Z,81.85
2017-12-26T08:11:24.603Z,82.89
2017-12-26T08:12:05.198Z,82.13
2017-12-26T08:12:45.779Z,82.51
2017-12-26T08:13:26.362Z,82.42
2017-12-26T08:14:06.971Z,82.32
2017-12-26T08:14:47.542Z,82.42
2017-12-26T08:15:28.120Z,81.85
2017-12-26T08:16:08.746Z,82.51
2017-12-26T08:16:49.301Z,81.94
2017-12-26T08:17:29.909Z,82.51
2017-12-26T08:18:10.507Z,82.7
2017-12-26T08:18:51.092Z,82.79
2017-12-26T08:19:31.704Z,82.13
2017-12-26T08:20:12.262Z,82.7
2017-12-26T08:20:52.851Z,82.13
2017-12-26T08:21:33.485Z,82.7
2017-12-26T08:22:14.095Z,82.7
2017-12-26T08:22:54.663Z,82.42
2017-12-26T08:23:35.256Z,82.23
2017-12-26T08:24:15.835Z,82.13
2017-12-26T08:24:56.411Z,82.23
2017-12-26T08:25:36.979Z,82.32
2017-12-26T08:26:17.560Z,82.32
2017-12-26T08:26:58.136Z,82.42
2017-12-26T08:27:38.734Z,82.42
2017-12-26T08:28:19.320Z,82.04
2017-12-26T08:28:59.897Z,81.75
2017-12-26T08:29:40.475Z,82.32
2017-12-26T08:30:21.037Z,81.94
2017-12-26T08:31:01.644Z,82.23
2017-12-26T08:31:42.244Z,82.42
2017-12-26T08:32:22.833Z,82.32
2017-12-26T08:33:03.438Z,82.42
2017-12-26T08:33:44.053Z,82.04
2017-12-26T08:34:24.671Z,82.04
2017-12-26T08:35:05.251Z,82.32
2017-12-26T08:35:45.893Z,82.42
2017-12-26T08:36:26.417Z,82.32
2017-12-26T08:37:07.012Z,82.04
2017-12-26T08:37:47.586Z,81.94
2017-12-26T08:38:28.161Z,82.42
2017-12-26T08:39:08.728Z,82.51
2017-12-26T08:39:49.296Z,82.23
2017-12-26T08:40:29.898Z,82.6
2017-12-26T08:41:10.493Z,82.23
2017-12-26T08:41:51.063Z,82.23
2017-12-26T08:42:31.656Z,82.89
2017-12-26T08:43:12.245Z,82.32
2017-12-26T08:43:52.817Z,82.32
2017-12-26T08:44:33.386Z,82.23
2017-12-26T08:45:13.954Z,82.32